Flag for Mexico

Past Weather in Matamoros, Tamaulipas, Mexico — Yesterday and Last 2 Weeks

Currently: 53 °F. Low clouds. (Weather station: Brownsville / South Padre Island International Airport, Mexico). See more current weather

Past Weather in Matamoros — Graph

°F

Matamoros Temperature Yesterday

Maximum temperature yesterday: 77 °F (at 12:53 am)
Minimum temperature yesterday: 56 °F (at 11:53 pm)
Average temperature yesterday: 68 °F

High & Low Weather Summary for the Past Weeks

 TemperatureHumidityPressure
High93 °F (Oct 15, 1:53 pm)97% (Oct 13, 1:53 am)30.14 "Hg (Oct 13, 1:53 am)
Low53 °F (Oct 28, 1:53 am)48% (Oct 17, 4:53 pm)29.79 "Hg (Oct 26, 3:53 pm)
Average79 °F78%29.94 "Hg
* Reported Oct 13 1:38 am — Oct 28 1:53 am, Matamoros. Weather by CustomWeather, © 2020

Note: Actual official high and low records may vary slightly from our data, if they occured in-between our weather recording intervals... More about our weather records

Matamoros Weather History for the Previous 24 Hours

Scroll right to see more
 ConditionsComfort  
Time TempWeatherWind HumidityBarometerVisibility
1:53 am
Wed, Oct 28
53 °FLow clouds.16 mph83%29.90 "Hg10 mi
12:53 am54 °FLow clouds.13 mph83%29.91 "Hg10 mi
11:53 pm
Tue, Oct 27
56 °FOvercast.14 mph81%29.91 "Hg10 mi
10:53 pm57 °FOvercast.12 mph81%29.90 "Hg10 mi
9:53 pm57 °FOvercast.10 mph83%29.90 "Hg10 mi
8:53 pm59 °FOvercast.13 mph81%29.89 "Hg10 mi
8:24 pm60 °FOvercast.12 mph78%29.89 "Hg10 mi
7:53 pm62 °FOvercast.13 mph75%29.88 "Hg10 mi
6:53 pm65 °FOvercast.13 mph70%29.86 "Hg10 mi
5:53 pm68 °FOvercast.13 mph65%29.84 "Hg10 mi
4:53 pm71 °FOvercast.10 mph61%29.84 "Hg10 mi
3:53 pm71 °FOvercast.13 mph61%29.85 "Hg10 mi
2:53 pm69 °FOvercast.14 mph66%29.87 "Hg10 mi
1:53 pm71 °FOvercast.14 mph63%29.89 "Hg10 mi
1:05 pm72 °FOvercast.14 mph61%29.92 "Hg10 mi
12:53 pm71 °FOvercast.15 mph63%29.91 "Hg10 mi
11:53 am72 °FOvercast.14 mph64%29.93 "Hg10 mi
10:53 am71 °FOvercast.10 mph66%29.94 "Hg10 mi
9:53 am69 °FPartly sunny.15 mph73%29.93 "Hg10 mi
9:03 am69 °FPassing clouds.13 mph81%29.92 "Hg10 mi
8:33 am69 °FPartly sunny.14 mph84%29.91 "Hg10 mi
7:53 am70 °FSunny.No wind93%29.88 "Hg10 mi
6:53 am71 °FClear.No wind90%29.87 "Hg10 mi
5:53 am70 °FClear.No wind90%29.86 "Hg10 mi
4:53 am71 °FClear.No wind87%29.85 "Hg10 mi
3:53 am71 °FClear.No wind87%29.86 "Hg10 mi
Weather by CustomWeather, © 2020

See weather overview